Terminal Aerodrome Forecast
Issued by NWS Albuquerque, NM

Home | Current Version | Previous Version | Text Only | Print | Product List | Glossary On
Versions: 1 2 3 4 5 6 7 8 9 10 11 12 13 14 15 16 17 18 19 20 21 22 23 24 25 26 27 28 29 30 31 32 33 34 35 36
000
FTUS45 KABQ 160520
TAFABQ
TAF
KABQ 160520Z 1606/1706 05005KT P6SM SCT120
     FM161800 28006KT P6SM SCT100 BKN150
     FM162200 25011KT P6SM VCSH BKN100
     FM170300 15009KT P6SM BKN100=

USA.gov is the U.S. government's official web portal to all federal, state and local government web resources and services.